Time;durP1;ratioP1;P1;durP2;ratioP2;P2;SDS_P1;SDS_P2;PMS_P1;PMS_P2;Temp;Humidity;BMP_temperature;BMP_pressure;BME280_temperature;BME280_humidity;BME280_pressure;Samples;Min_cycle;Max_cycle;Signal;HPM_P1;HPM_P2
2022/12/07 00:03:23;;;;;;;20.60;14.80;;;;;;;0.33;100.00;98829.80;419291;1275;142260;-61
2022/12/07 00:13:29;;;;;;;22.70;17.10;;;;;;;0.32;100.00;98820.39;422474;1276;142375;-59
2022/12/07 00:23:35;;;;;;;23.00;15.90;;;;;;;0.27;100.00;98817.42;422372;1271;142222;-58
2022/12/07 00:33:41;;;;;;;23.60;16.30;;;;;;;0.18;100.00;98819.83;422895;1279;142445;-60
2022/12/07 00:43:49;;;;;;;20.60;14.90;;;;;;;0.18;100.00;98819.32;425006;1281;141156;-60
2022/12/07 00:53:55;;;;;;;20.70;15.50;;;;;;;0.17;100.00;98823.82;421463;1279;163975;-61
2022/12/07 01:04:01;;;;;;;19.30;15.00;;;;;;;0.17;100.00;98819.69;424011;1274;142243;-60
2022/12/07 01:14:07;;;;;;;19.50;14.10;;;;;;;0.15;100.00;98817.36;422128;1279;146952;-59
2022/12/07 01:24:13;;;;;;;18.10;13.20;;;;;;;0.09;100.00;98813.77;421385;1276;145261;-58
2022/12/07 01:34:18;;;;;;;19.30;12.80;;;;;;;0.06;100.00;98801.98;422501;1271;143231;-60
2022/12/07 01:44:26;;;;;;;17.30;12.50;;;;;;;0.03;100.00;98795.20;421708;1282;142969;-59
2022/12/07 01:54:33;;;;;;;15.30;11.70;;;;;;;0.01;100.00;98787.33;420376;1272;143564;-59
2022/12/07 02:04:40;;;;;;;14.80;12.40;;;;;;;0.04;100.00;98774.85;420415;1275;142120;-59
2022/12/07 02:14:45;;;;;;;18.50;12.90;;;;;;;0.04;100.00;98771.73;419873;1275;141378;-59
2022/12/07 02:24:58;;;;;;;12.90;10.30;;;;;;;0.03;100.00;98767.33;419127;1279;196693;-61
2022/12/07 02:35:10;;;;;;;13.00;10.40;;;;;;;0.03;100.00;98758.38;425630;1281;142840;-61
2022/12/07 02:45:21;;;;;;;10.70;9.10;;;;;;;0.01;100.00;98747.77;421757;1272;199436;-58
2022/12/07 02:55:30;;;;;;;10.20;8.40;;;;;;;0.01;100.00;98743.30;425598;1279;143290;-58
2022/12/07 03:05:51;;;;;;;11.50;9.20;;;;;;;0.03;100.00;98740.14;425484;1271;142186;-58
2022/12/07 03:16:03;;;;;;;9.40;8.50;;;;;;;0.04;100.00;98738.55;422059;1272;197062;-61
2022/12/07 03:26:14;;;;;;;9.40;7.90;;;;;;;0.05;100.00;98733.16;423163;1271;141667;-59
2022/12/07 03:36:26;;;;;;;7.20;6.50;;;;;;;0.06;100.00;98726.58;423137;1275;141380;-60
2022/12/07 03:46:39;;;;;;;6.50;5.60;;;;;;;0.03;100.00;98719.48;424906;1281;142781;-60
2022/12/07 03:56:47;;;;;;;6.00;5.50;;;;;;;0.01;100.00;98708.53;422513;1272;142573;-61
2022/12/07 04:06:53;;;;;;;6.90;5.80;;;;;;;0.04;100.00;98710.14;420662;1282;195726;-59
2022/12/07 04:17:00;;;;;;;5.90;5.30;;;;;;;0.02;100.00;98711.60;423595;1275;145213;-59
2022/12/07 04:27:07;;;;;;;5.80;4.80;;;;;;;-0.03;100.00;98707.63;421294;1279;143683;-60
2022/12/07 04:37:12;;;;;;;5.10;4.30;;;;;;;-0.06;100.00;98702.06;421849;1279;142748;-59
2022/12/07 04:47:18;;;;;;;5.40;4.40;;;;;;;-0.06;100.00;98696.06;419915;1272;143114;-60
2022/12/07 04:57:24;;;;;;;5.50;4.80;;;;;;;-0.11;100.00;98694.15;420104;1275;142678;-59
2022/12/07 05:07:30;;;;;;;5.20;4.50;;;;;;;-0.15;100.00;98686.38;423448;1280;143050;-59
2022/12/07 05:17:36;;;;;;;5.10;4.30;;;;;;;-0.15;100.00;98687.91;425967;1281;143811;-59
2022/12/07 05:27:42;;;;;;;6.00;5.10;;;;;;;-0.14;100.00;98685.28;420343;1279;141803;-59
2022/12/07 05:37:48;;;;;;;5.10;4.40;;;;;;;-0.13;100.00;98695.42;421524;1279;144951;-60
2022/12/07 05:47:54;;;;;;;5.90;5.30;;;;;;;-0.12;100.00;98700.36;434620;1279;143731;-61
2022/12/07 06:08:25;;;;;;;7.30;6.50;;;;;;;0.04;100.00;98701.55;436548;1273;143299;-59
2022/12/07 06:18:30;;;;;;;11.10;9.00;;;;;;;0.17;100.00;98700.73;435265;1287;143142;-59
2022/12/07 06:28:37;;;;;;;10.80;8.70;;;;;;;0.28;100.00;98698.95;427658;1275;142205;-59
2022/12/07 06:38:43;;;;;;;10.40;8.50;;;;;;;0.37;100.00;98699.84;433684;1281;143108;-58
2022/12/07 06:48:49;;;;;;;10.50;9.00;;;;;;;0.36;100.00;98705.42;436104;1282;142571;-59
2022/12/07 06:58:55;;;;;;;8.20;7.30;;;;;;;0.31;100.00;98707.45;436850;1287;143610;-60
2022/12/07 07:09:02;;;;;;;8.30;7.30;;;;;;;0.36;100.00;98707.29;436220;1282;144346;-60
2022/12/07 07:19:08;;;;;;;12.30;8.90;;;;;;;0.43;100.00;98705.81;436993;1277;143868;-59
2022/12/07 07:29:14;;;;;;;12.50;9.90;;;;;;;0.51;100.00;98709.15;436977;1280;142219;-58
2022/12/07 07:39:20;;;;;;;23.50;19.10;;;;;;;0.63;100.00;98712.88;436204;1285;145630;-60
2022/12/07 07:49:25;;;;;;;11.40;8.60;;;;;;;0.74;100.00;98725.56;436938;1282;143275;-59
2022/12/07 07:59:34;;;;;;;10.40;7.70;;;;;;;0.88;100.00;98736.08;436947;1272;142406;-60
2022/12/07 08:09:44;;;;;;;9.20;7.80;;;;;;;0.93;100.00;98741.89;435920;1285;145491;-59
2022/12/07 08:19:50;;;;;;;9.40;7.70;;;;;;;0.87;100.00;98740.39;420158;1279;142286;-60
2022/12/07 08:29:56;;;;;;;7.80;6.80;;;;;;;0.70;100.00;98742.05;430229;1278;144070;-60
2022/12/07 08:40:02;;;;;;;9.00;7.70;;;;;;;0.64;100.00;98743.46;420435;1278;142965;-61
2022/12/07 08:50:29;;;;;;;9.60;8.20;;;;;;;0.67;100.00;98738.55;436995;1285;142411;-58
2022/12/07 09:00:37;;;;;;;12.00;8.20;;;;;;;0.71;100.00;98733.58;436172;1288;143792;-59
2022/12/07 09:10:46;;;;;;;7.60;6.30;;;;;;;0.67;100.00;98729.42;436957;1285;200646;-59
2022/12/07 09:20:53;;;;;;;10.40;7.00;;;;;;;0.65;100.00;98718.80;436206;1280;143148;-59
2022/12/07 09:30:59;;;;;;;7.20;6.50;;;;;;;0.71;100.00;98714.81;436924;1281;143698;-59
2022/12/07 09:41:32;;;;;;;7.70;6.00;;;;;;;0.64;100.00;98713.01;437003;1286;142055;-59
2022/12/07 09:52:18;;;;;;;7.90;6.90;;;;;;;0.52;100.00;98704.64;436386;1278;211468;-59
2022/12/07 10:02:28;;;;;;;;;;;;;;;0.55;100.00;98696.80;437007;1282;142026;-59
2022/12/07 10:12:57;;;;;;;11.00;9.80;;;;;;;0.59;100.00;98683.74;436550;1278;128474;-60
2022/12/07 10:23:06;;;;;;;11.50;9.20;;;;;;;0.65;100.00;98676.08;436986;1282;143231;-59
2022/12/07 10:33:31;;;;;;;9.90;7.40;;;;;;;0.65;100.00;98675.41;436196;1281;143600;-60
2022/12/07 10:43:37;;;;;;;8.20;6.50;;;;;;;0.51;100.00;98664.71;436950;1281;142324;-60
2022/12/07 10:53:55;;;;;;;8.90;8.00;;;;;;;0.51;100.00;98661.98;435791;1279;142440;-59
2022/12/07 11:04:22;;;;;;;9.30;7.80;;;;;;;0.49;100.00;98663.60;436524;1287;197986;-59
2022/12/07 11:14:37;;;;;;;9.80;7.40;;;;;;;0.46;100.00;98661.99;437019;1286;142284;-59
2022/12/07 11:24:54;;;;;;;8.00;6.60;;;;;;;0.44;100.00;98658.42;435427;1279;142034;-59
2022/12/07 11:35:11;;;;;;;6.80;6.10;;;;;;;0.46;100.00;98650.29;433111;1271;142440;-61
2022/12/07 11:45:30;;;;;;;6.90;6.20;;;;;;;0.35;100.00;98625.03;424737;1272;142739;-59
2022/12/07 11:55:46;;;;;;;7.10;6.30;;;;;;;0.35;100.00;98629.88;428199;1273;142920;-60
2022/12/07 12:05:51;;;;;;;;;;;;;;;0.36;100.00;98624.14;435743;1277;142252;-61
2022/12/07 12:16:19;;;;;;;7.70;6.40;;;;;;;0.47;100.00;98611.48;436584;1273;131206;-60
2022/12/07 12:26:34;;;;;;;8.70;6.60;;;;;;;0.58;100.00;98604.36;432467;1278;142456;-59
2022/12/07 12:36:48;;;;;;;9.50;7.70;;;;;;;0.58;100.00;98599.70;435711;1272;186660;-60
2022/12/07 12:46:59;;;;;;;9.10;7.20;;;;;;;0.67;100.00;98580.08;436391;1272;142574;-59
2022/12/07 12:57:12;;;;;;;11.40;8.40;;;;;;;0.75;100.00;98570.81;435591;1278;142734;-58
2022/12/07 13:07:52;;;;;;;8.70;7.70;;;;;;;0.72;100.00;98563.49;436397;1272;144032;-59
2022/12/07 13:18:37;;;;;;;12.10;9.60;;;;;;;0.61;100.00;98560.31;435568;1272;144218;-60
2022/12/07 13:29:12;;;;;;;12.40;10.00;;;;;;;0.45;100.00;98555.08;427647;1272;196455;-59
2022/12/07 13:39:23;;;;;;;16.50;12.90;;;;;;;0.38;100.00;98559.64;418573;1271;143974;-59
2022/12/07 13:49:51;;;;;;;17.90;13.40;;;;;;;0.19;100.00;98557.27;422914;1272;145684;-59
2022/12/07 14:00:22;;;;;;;15.90;13.60;;;;;;;0.11;100.00;98558.08;422804;1272;142761;-58
2022/12/07 14:10:34;;;;;;;18.40;14.50;;;;;;;0.12;100.00;98558.24;436368;1279;146292;-59
2022/12/07 14:20:41;;;;;;;16.80;12.50;;;;;;;0.15;100.00;98562.74;436834;1280;143119;-59
2022/12/07 14:31:12;;;;;;;17.20;14.40;;;;;;;0.14;100.00;98565.55;436530;1277;197977;-60
2022/12/07 14:41:52;;;;;;;13.70;11.00;;;;;;;0.19;100.00;98563.33;436970;1281;143223;-59
2022/12/07 14:51:59;;;;;;;14.50;10.30;;;;;;;0.21;100.00;98562.54;436485;1282;207643;-60
2022/12/07 15:02:26;;;;;;;13.10;11.60;;;;;;;0.21;100.00;98558.59;437028;1280;144960;-59
2022/12/07 15:12:31;;;;;;;13.80;10.40;;;;;;;0.22;100.00;98563.38;426797;1279;143779;-58
2022/12/07 15:22:57;;;;;;;13.90;11.40;;;;;;;0.16;100.00;98554.81;436939;1272;200522;-59
2022/12/07 15:33:03;;;;;;;13.80;9.70;;;;;;;0.14;100.00;98550.95;424313;1279;143967;-60
2022/12/07 15:53:52;;;;;;;11.40;8.50;;;;;;;0.09;100.00;98555.23;429398;1281;142294;-60
2022/12/07 16:04:00;;;;;;;11.50;9.60;;;;;;;0.08;100.00;98559.05;436769;1274;145029;-60
2022/12/07 16:14:06;;;;;;;14.50;9.50;;;;;;;-0.02;100.00;98560.15;436823;1277;142786;-60
2022/12/07 16:24:12;;;;;;;15.10;10.30;;;;;;;-0.04;100.00;98568.63;435954;1284;144141;-62
2022/12/07 16:34:20;;;;;;;9.80;8.00;;;;;;;-0.04;100.00;98573.11;436730;1275;143993;-60
2022/12/07 16:44:26;;;;;;;11.20;8.40;;;;;;;-0.08;100.00;98580.00;436762;1272;142831;-59
2022/12/07 16:54:33;;;;;;;10.30;7.70;;;;;;;-0.15;100.00;98582.98;436034;1280;142705;-60
2022/12/07 17:04:39;;;;;;;10.90;7.50;;;;;;;-0.19;100.00;98583.95;430825;1271;142899;-60
2022/12/07 17:25:20;;;;;;;6.80;5.50;;;;;;;-0.11;100.00;98591.45;436075;1281;128968;-60
2022/12/07 17:35:26;;;;;;;5.20;4.00;;;;;;;-0.06;100.00;98592.80;436776;1280;144557;-60
2022/12/07 17:45:31;;;;;;;5.10;4.00;;;;;;;-0.01;100.00;98609.65;435940;1285;143803;-60
2022/12/07 17:55:38;;;;;;;4.30;3.60;;;;;;;0.01;100.00;98623.52;429621;1275;142264;-60
2022/12/07 18:06:03;;;;;;;;;;;;;;;0.00;100.00;98638.01;436041;1279;142800;-59
2022/12/07 18:16:13;;;;;;;4.60;3.40;;;;;;;-0.05;100.00;98652.64;437072;1280;128801;-59
2022/12/07 18:26:23;;;;;;;3.50;3.20;;;;;;;-0.17;99.75;98660.45;436738;1274;141973;-60
2022/12/07 18:36:28;;;;;;;3.90;3.10;;;;;;;-0.34;99.14;98664.98;436039;1282;142219;-59
2022/12/07 18:46:36;;;;;;;5.50;3.20;;;;;;;-0.66;98.78;98664.85;436788;1273;145211;-60
2022/12/07 18:56:42;;;;;;;6.90;4.80;;;;;;;-1.11;98.71;98664.21;436681;1281;143287;-60
2022/12/07 19:06:49;;;;;;;5.80;3.80;;;;;;;-1.48;98.99;98667.89;428923;1280;145991;-60
2022/12/07 19:16:56;;;;;;;4.80;3.20;;;;;;;-1.66;99.14;98669.27;436789;1281;141841;-59
2022/12/07 19:27:05;;;;;;;4.10;3.20;;;;;;;-1.84;99.36;98673.36;433940;1288;143066;-59
2022/12/07 19:37:12;;;;;;;7.40;4.20;;;;;;;-1.96;99.31;98675.42;434830;1279;143434;-60
2022/12/07 19:47:17;;;;;;;;;;;;;;;-2.06;99.78;98674.16;436781;1274;143178;-59
2022/12/07 19:57:24;;;;;;;16.90;9.90;;;;;;;-2.03;99.81;98687.46;436312;1280;131236;-60
2022/12/07 20:07:36;;;;;;;15.00;10.20;;;;;;;-1.80;100.00;98683.90;429956;1279;142203;-59
2022/12/07 20:17:43;;;;;;;14.00;9.60;;;;;;;-1.76;99.93;98682.77;429849;1278;143355;-59
2022/12/07 20:28:03;;;;;;;15.10;10.90;;;;;;;-1.77;100.00;98680.07;436179;1280;197621;-59
2022/12/07 20:38:17;;;;;;;13.30;10.40;;;;;;;-1.75;100.00;98681.02;436786;1282;143362;-59
2022/12/07 20:48:23;;;;;;;18.40;11.20;;;;;;;-1.58;100.00;98678.64;421624;1275;144072;-59
2022/12/07 20:58:30;;;;;;;;;;;;;;;-1.39;100.00;98678.61;436604;1279;142584;-59
2022/12/07 21:08:36;;;;;;;10.50;9.00;;;;;;;-1.16;100.00;98670.21;432375;1277;129222;-60
2022/12/07 21:18:44;;;;;;;14.90;11.50;;;;;;;-1.03;100.00;98664.14;430076;1281;142604;-61
2022/12/07 21:28:51;;;;;;;12.10;7.90;;;;;;;-1.08;100.00;98661.54;436816;1281;143300;-59
2022/12/07 21:38:58;;;;;;;17.60;9.20;;;;;;;-1.25;100.00;98666.35;436063;1280;143992;-65
2022/12/07 21:49:06;;;;;;;12.30;9.40;;;;;;;-1.10;100.00;98671.92;427557;1278;143469;-60
2022/12/07 21:59:16;;;;;;;15.60;11.90;;;;;;;-0.97;100.00;98673.74;429901;1287;144296;-59
2022/12/07 22:09:23;;;;;;;14.30;10.70;;;;;;;-0.90;100.00;98680.39;436009;1282;143334;-60
2022/12/07 22:19:28;;;;;;;16.80;10.70;;;;;;;-0.89;100.00;98691.01;436829;1277;143355;-60
2022/12/07 22:29:36;;;;;;;22.50;11.40;;;;;;;-0.81;100.00;98702.80;436715;1286;143297;-60
2022/12/07 22:39:42;;;;;;;10.80;8.30;;;;;;;-0.67;100.00;98725.05;436026;1281;186445;-59
2022/12/07 22:49:49;;;;;;;5.80;4.20;;;;;;;-0.71;100.00;98725.34;436799;1277;143559;-58
2022/12/07 22:59:57;;;;;;;5.10;3.50;;;;;;;-0.91;100.00;98718.91;436058;1282;142578;-60
2022/12/07 23:10:05;;;;;;;6.10;4.00;;;;;;;-1.07;100.00;98728.14;436737;1281;142918;-60
2022/12/07 23:20:12;;;;;;;11.60;7.30;;;;;;;-1.11;100.00;98728.96;432451;1272;141988;-59
2022/12/07 23:30:22;;;;;;;11.80;8.20;;;;;;;-1.00;100.00;98720.90;434623;1287;145929;-60
2022/12/07 23:40:31;;;;;;;7.60;6.60;;;;;;;-0.85;100.00;98738.31;436833;1286;143372;-60
2022/12/07 23:50:42;;;;;;;5.30;4.00;;;;;;;-0.84;100.00;98737.42;436847;1282;141910;-60
